createdAt,value
2023-05-20T00:02:54.231Z,101008.58
2023-05-20T00:11:17.255Z,101003.83
2023-05-20T00:19:40.164Z,101001.85
2023-05-20T00:28:03.096Z,101003.23
2023-05-20T00:36:26.023Z,100998.60
2023-05-20T00:44:49.578Z,100997.13
2023-05-20T00:53:12.947Z,100991.00
2023-05-20T01:01:36.061Z,100991.40
2023-05-20T01:09:59.884Z,100989.11
2023-05-20T01:18:25.614Z,100989.52
2023-05-20T01:26:50.433Z,100986.52
2023-05-20T01:35:15.057Z,100992.22
2023-05-20T01:43:39.801Z,100993.94
2023-05-20T01:52:03.423Z,100998.16
2023-05-20T02:00:26.832Z,100996.34
2023-05-20T02:08:49.976Z,100992.41
2023-05-20T02:17:17.810Z,100986.48
2023-05-20T02:25:41.231Z,100983.85
2023-05-20T02:34:06.477Z,100989.06
2023-05-20T02:42:29.768Z,100982.88
2023-05-20T02:50:53.194Z,100988.95
2023-05-20T02:59:16.223Z,100993.23
2023-05-20T03:07:39.146Z,100994.33
2023-05-20T03:16:02.861Z,100994.29
2023-05-20T03:24:27.257Z,100991.60
2023-05-20T03:32:50.667Z,100999.39
2023-05-20T03:41:13.854Z,101003.57
2023-05-20T03:49:37.124Z,101005.11
2023-05-20T03:58:01.410Z,101003.06
2023-05-20T04:06:24.801Z,101009.38
2023-05-20T04:14:50.154Z,101004.38
2023-05-20T04:23:13.654Z,101008.84
2023-05-20T04:31:38.574Z,101010.66
2023-05-20T04:40:03.347Z,101003.27
2023-05-20T04:48:27.082Z,101004.72
2023-05-20T04:56:51.097Z,101000.39
2023-05-20T05:05:14.268Z,101001.18
2023-05-20T05:13:37.528Z,101000.48
2023-05-20T05:22:00.698Z,101000.67
2023-05-20T05:30:25.291Z,100998.77
2023-05-20T05:38:48.457Z,100996.73
2023-05-20T05:47:11.718Z,101000.39
2023-05-20T05:55:34.868Z,100999.52
2023-05-20T06:03:58.203Z,100996.88
2023-05-20T06:12:21.300Z,101003.31
2023-05-20T06:20:44.669Z,101007.14
2023-05-20T06:29:07.840Z,101004.56
2023-05-20T06:37:31.243Z,100999.98
2023-05-20T06:45:54.408Z,101001.38
2023-05-20T06:54:25.138Z,101001.23
2023-05-20T07:02:48.214Z,100995.27
2023-05-20T07:11:11.212Z,100998.18
2023-05-20T07:19:34.799Z,101002.20
2023-05-20T07:28:00.483Z,100993.00
2023-05-20T07:36:23.788Z,100987.21
2023-05-20T07:44:47.777Z,100974.19
2023-05-20T07:53:11.278Z,100972.40
2023-05-20T08:01:35.006Z,100964.38
2023-05-20T08:09:58.713Z,100958.11
2023-05-20T08:18:23.528Z,100957.08
2023-05-20T08:26:46.514Z,100956.02
2023-05-20T08:35:10.727Z,100949.75
2023-05-20T08:43:34.608Z,100956.69
2023-05-20T08:52:00.925Z,100950.67
2023-05-20T09:00:28.731Z,100945.42
2023-05-20T09:08:52.721Z,100947.23
2023-05-20T09:17:15.912Z,100945.55
2023-05-20T09:25:38.935Z,100940.92
2023-05-20T09:34:02.186Z,100949.98
2023-05-20T09:42:34.388Z,100941.25
2023-05-20T09:50:58.900Z,100938.00
2023-05-20T09:59:22.136Z,100931.65
2023-05-20T10:07:44.938Z,100926.71
2023-05-20T10:16:27.122Z,100922.57
2023-05-20T10:25:06.674Z,100914.65
2023-05-20T10:33:30.379Z,100918.86
2023-05-20T10:41:53.293Z,100911.89
2023-05-20T10:50:28.059Z,100900.50
2023-05-20T10:58:55.148Z,100892.64
2023-05-20T11:07:31.547Z,100880.70
2023-05-20T11:15:55.196Z,100860.65
2023-05-20T11:24:28.437Z,100850.66
2023-05-20T11:32:59.238Z,100854.18
2023-05-20T11:41:26.503Z,100853.02
2023-05-20T11:49:49.727Z,100852.04
2023-05-20T11:58:16.259Z,100850.87
2023-05-20T12:06:39.808Z,100847.25
2023-05-20T12:15:06.402Z,100849.23
2023-05-20T12:23:30.848Z,100843.77
2023-05-20T12:31:53.835Z,100832.13
2023-05-20T12:40:17.084Z,100829.56
2023-05-20T12:48:41.913Z,100826.20
2023-05-20T12:57:06.026Z,100821.20
2023-05-20T13:05:29.130Z,100808.61
2023-05-20T13:13:52.048Z,100801.74
2023-05-20T13:22:15.102Z,100797.20
2023-05-20T13:30:38.500Z,100793.89
2023-05-20T13:39:01.628Z,100791.34
2023-05-20T13:47:24.730Z,100782.41
2023-05-20T13:55:47.761Z,100779.73
2023-05-20T14:04:12.703Z,100781.46
2023-05-20T14:12:35.614Z,100773.44
2023-05-20T14:20:58.544Z,100760.69
2023-05-20T14:29:21.652Z,100759.39
2023-05-20T14:37:45.258Z,100751.02
2023-05-20T14:46:09.875Z,100744.70
2023-05-20T14:54:35.698Z,100753.44
2023-05-20T15:02:58.804Z,100750.31
2023-05-20T15:11:22.512Z,100744.88
2023-05-20T15:19:45.427Z,100744.94
2023-05-20T15:28:08.397Z,100735.88
2023-05-20T15:36:31.493Z,100735.42
2023-05-20T15:44:54.398Z,100731.98
2023-05-20T15:53:17.278Z,100717.99
2023-05-20T16:01:40.428Z,100713.27
2023-05-20T16:10:03.780Z,100716.84
2023-05-20T16:18:30.532Z,100715.17
2023-05-20T16:26:54.086Z,100716.81
2023-05-20T16:35:17.286Z,100723.59
2023-05-20T16:43:40.761Z,100727.59
2023-05-20T16:52:05.944Z,100736.50
2023-05-20T17:00:29.290Z,100740.24
2023-05-20T17:08:52.228Z,100746.83
2023-05-20T17:17:15.668Z,100752.69
2023-05-20T17:25:38.770Z,100756.53
2023-05-20T17:34:01.954Z,100754.98
2023-05-20T17:42:25.218Z,100754.86
2023-05-20T17:50:48.895Z,100755.52
2023-05-20T17:59:12.095Z,100758.66
2023-05-20T18:07:36.458Z,100756.81
2023-05-20T18:16:00.699Z,100762.28
2023-05-20T18:24:23.930Z,100772.98
2023-05-20T18:32:47.994Z,100775.52
2023-05-20T18:41:13.204Z,100780.95
2023-05-20T18:49:36.211Z,100783.08
2023-05-20T18:57:59.348Z,100784.19
2023-05-20T19:06:22.536Z,100779.88
2023-05-20T19:14:46.634Z,100782.55
2023-05-20T19:23:09.587Z,100784.86
2023-05-20T19:31:32.487Z,100781.86
2023-05-20T19:39:55.521Z,100780.15
2023-05-20T19:48:20.028Z,100778.34
2023-05-20T19:56:46.291Z,100774.84
2023-05-20T20:05:09.950Z,100768.25
2023-05-20T20:13:33.443Z,100772.79
2023-05-20T20:21:56.775Z,100779.49
2023-05-20T20:30:21.689Z,100784.70
2023-05-20T20:38:46.828Z,100780.96
2023-05-20T20:47:10.148Z,100783.20
2023-05-20T20:55:34.435Z,100773.97
2023-05-20T21:03:58.671Z,100776.30
2023-05-20T21:12:21.934Z,100780.78
2023-05-20T21:20:44.852Z,100786.56
2023-05-20T21:29:10.008Z,100776.45
2023-05-20T21:37:32.995Z,100776.16
2023-05-20T21:45:56.279Z,100779.33
2023-05-20T21:54:19.163Z,100776.47
2023-05-20T22:02:42.135Z,100772.85
2023-05-20T22:11:05.729Z,100772.57
2023-05-20T22:19:30.607Z,100770.90
2023-05-20T22:27:53.609Z,100768.83
2023-05-20T22:36:16.600Z,100772.05
2023-05-20T22:44:39.664Z,100766.95
2023-05-20T22:53:03.025Z,100762.04
2023-05-20T23:01:26.062Z,100755.78
2023-05-20T23:09:49.095Z,100755.45
2023-05-20T23:18:12.389Z,100754.84
2023-05-20T23:26:37.691Z,100750.25
2023-05-20T23:35:04.836Z,100747.36
2023-05-20T23:43:27.718Z,100747.14
2023-05-20T23:51:51.719Z,100750.88
